Historyczne dane pomiarowe

Dodano dane terminowe – wersja testowa.

Dane z okresu 1951-2019

Wersja bazy: 1.34 [2019-03-16, lista zmian], aktualizacja planowana na 2019-04-15

Dane meteo z obszaru Polski uzyskane na podstawie danych udostępnionych przez Instytut Meteorologii i Gospodarki Wodnej – Państwowy Instytut Badawczy.

 

Wybierz Datę:    

       

TemperaturaWilgotnośćWiatrCiśnienieOpadyŚniegCzas trwania zjawisk
 Stacja t tx tn tng RH VA  wxwx mslp ppp RRR   cm mm wxwxwxwxwxwxwx
1983-08-14 14.2 18.6 9.2- 76.0- 4.3 1.7---- 0.0------------
1983-08-13 17.0 23.1 12.5- 76.0- 6.3 3.7---- 5.2------------
1983-08-12 20.7 26.9 14.2- 69.3- 4.3 0.7---- 0.2------------
1983-08-11 19.2 24.6 14.2- 78.8- 5.0 1.0---- 0.0------------
1983-08-10 19.1 25.0 13.2- 75.8- 4.7 0.0---- 0.5------------
1983-08-09 17.9 24.8 14.5- 86.5- 7.0 0.0---- 22.2------------
1983-08-08 17.6 22.6 14.7- 92.0- 7.0 1.3---- 15.0------------
1983-08-07 15.8 19.1 13.2- 85.3- 8.0 1.0---- 0.5------------
1983-08-06 15.1 19.5 10.7- 74.5- 6.0 0.0---- 0.0------------
1983-08-05 12.4 15.1 9.1- 81.3- 6.7 1.3---- 0.0------------
1983-08-04 11.4 15.7 10.5- 92.3- 8.0 1.7---- 2.5------------
1983-08-03 17.8 20.1 15.0- 81.8- 6.7 6.3---- 0.3------------
1983-08-02 20.0 26.9 18.4- 87.8- 6.0 1.0---- 2.4------------
1983-08-01 22.3 31.6 12.1- 55.0- 0.0 2.0---- 0.0------------
1983-07-31 19.1 26.4 9.5- 60.3- 0.0 1.0---- 0.0------------
1983-07-30 19.4 24.4 16.0- 72.8- 4.3 4.3---- 0.0------------
1983-07-29 20.7 25.0 16.1- 66.0- 4.3 2.0---- 1.6------------
1983-07-28 25.0 30.2 22.3- 56.5- 5.3 2.0---- 0.0------------
1983-07-27 24.7 33.8 13.6- 52.8- 1.3 0.3---- 0.0------------
1983-07-26 21.4 28.6 11.1- 53.3- 0.0 0.3---- 0.0------------
1983-07-25 17.0 21.6 11.2- 74.3- 4.7 0.7---- 0.0------------
1983-07-24 18.6 24.1 11.1- 72.0- 4.3 1.0---- 2.0------------
1983-07-23 18.2 23.2 14.2- 72.3- 5.7 1.3---- 0.0------------
1983-07-22 13.5 15.7 10.7- 78.5- 6.7 2.3---- 1.6------------
1983-07-21 13.9 16.8 10.7- 62.0- 4.0 3.0---- 0.0------------
1983-07-20 16.4 27.2 13.1- 80.8- 6.0 3.7---- 2.3------------
1983-07-19 24.8 29.5 19.2- 57.8- 2.7 1.3---- 6.6------------
1983-07-18 24.4 32.1 15.1- 57.8- 0.0 0.7---- 0.7------------
1983-07-17 21.8 27.5 14.1- 71.8- 3.0 0.0---- 0.2------------
1983-07-16 20.6 28.5 13.6- 70.3- 4.0 1.0---- 1.8------------
1983-07-15 20.3 25.8 14.7- 69.8- 5.7 1.7---- 0.0------------
1983-07-14 18.2 23.1 16.1- 84.5- 6.7 4.0---- 0.7------------
1983-07-13 20.5 26.4 16.0- 73.3- 5.0 6.0---- 14.7------------
1983-07-12 19.3 24.6 16.5- 85.5- 6.3 3.0---- 4.2------------
1983-07-11 18.9 27.4 16.7- 82.5- 6.0 2.0---- 6.0------------
1983-07-10 23.1 29.2 13.8- 54.5- 3.0 2.3---- 0.0------------
1983-07-09 21.8 27.5 12.2- 54.5- 1.3 0.7---- 0.0------------
1983-07-08 22.7 27.5 14.3- 43.5- 0.0 1.0---- 0.0------------
1983-07-07 23.5 29.6 15.6- 57.8- 1.7 2.0---- 0.0------------
1983-07-06 22.6 29.0 14.7- 58.8- 1.3 0.7---- 0.0------------
1983-07-05 20.5 26.5 13.2- 61.8- 3.0 0.7---- 0.0------------
1983-07-04 20.3 26.0 12.7- 55.5- 2.3 0.7---- 0.0------------
1983-07-03 19.4 24.1 13.2- 52.5- 3.0 0.7---- 0.0------------
1983-07-02 18.0 22.7 15.5- 74.3- 6.0 4.3---- 0.0------------
1983-07-01 19.7 26.0 12.1- 50.5- 3.3 0.3---- 0.0------------
1983-06-30 16.4 22.9 8.1- 58.5- 2.0 0.7---- 0.0------------
1983-06-29 14.8 19.1 9.1- 53.0- 1.7 0.7---- 0.0------------
1983-06-28 17.7 23.2 15.4- 71.5- 8.0 1.7---- 12.8------------
1983-06-27 21.3 26.5 15.9- 63.8- 5.7 1.0---- 8.4------------
1983-06-26 20.0 25.2 16.0- 66.3- 5.3 0.7---- 0.0------------
1983-06-25 21.7 26.8 15.0- 54.3- 0.3 1.7---- 4.7------------
1983-06-24 18.1 26.4 7.0- 50.3- 0.0 0.3---- 0.0------------
1983-06-23 16.3 21.4 11.3- 46.0- 0.0 0.3---- 0.0------------
1983-06-22 16.7 23.8 13.0- 52.0- 1.7 0.7---- 0.0------------
1983-06-21 19.5 25.1 11.3- 59.0- 4.7 0.3---- 0.0------------
1983-06-20 16.4 20.9 14.4- 80.5- 8.0 0.0---- 0.0------------
1983-06-19 12.6 14.5 11.6- 93.3- 8.0 1.7---- 10.8------------
1983-06-18 12.0 14.8 8.7- 89.5- 7.7 0.7---- 14.4------------
1983-06-17 11.8 14.2 9.7- 71.5- 8.0 1.3---- 0.0------------
1983-06-16 11.5 13.9 8.1- 73.0- 8.0 1.0---- 0.0------------
248.9 ms

 

Źródłem pochodzenia danych jest Instytut Meteorologii i Gospodarki Wodnej – Państwowy Instytut Badawczy. Dane Instytutu Meteorologii i Gospodarki Wodnej – Państwowego Instytutu Badawczego zostały przetworzone.

Dane źródłowe można odnaleźć na stronie https://dane.imgw.pl